Terminal Aerodrome Forecast
Issued by NWS

Home | Current Version | Previous Version | Text Only | Print | Product List | Glossary On
Versions: 1 2 3 4 5 6 7 8 9 10 11 12 13
000
FTUS45 KRIW 250600 AAA
TAFJAC
TAF AMD
KJAC 250642Z 2507/2606 35005KT P6SM VCFG BKN015
      TEMPO 2509/2513 4SM -SN BR
     FM251600 VRB04KT P6SM VCSH BKN026
     FM251900 VRB05KT P6SM BKN035
     FM260300 36006KT P6SM SCT040
      AMD LTD TO CLD VIS AND WIND=

USA.gov is the U.S. government's official web portal to all federal, state and local government web resources and services.